Villers-le-Bouillet, Belgium
Current Conditions -  °F | °C
As of 5:20 PM on Friday 21 Nov 2014 (Local Time) from EBLG Reporting Station
Broken Clouds Broken Clouds  
Wind Chill: 48°   Ceiling: 1500
Heat Index: 48°   Visibility: 6mi
Dew Point: 43°   Wind: 3mph
Humidity: 82%   Direction: NA
Pressure: 30.09"   Gusts: 17mph
Location:  50.58°N, 5.26°E
Report Text: EBLG 211620Z VRB03G15KT 9999 BKN015 09/06 Q1019
Loading
Personal Weather Stations






























Interactive Weather Map New forecast layout! Learn more

10-Day Weather Forecast

Advertisements
Track Severe Weather on mobile